Time;durP1;ratioP1;P1;durP2;ratioP2;P2;SDS_P1;SDS_P2;PMS_P1;PMS_P2;Temp;Humidity;BMP_temperature;BMP_pressure;BME280_temperature;BME280_humidity;BME280_pressure;Samples;Min_cycle;Max_cycle;Signal;HPM_P1;HPM_P2
2022/05/04 00:02:32;;;;;;;15.67;9.57;;;;;8.50;101447.00;;;;10554652;28;20215;-79
2022/05/04 00:07:34;;;;;;;17.73;9.63;;;;;8.50;101455.00;;;;10556658;28;20188;-79
2022/05/04 00:12:36;;;;;;;15.57;8.70;;;;;8.50;101462.00;;;;10547935;27;20789;-80
2022/05/04 00:17:38;;;;;;;16.93;9.63;;;;;8.40;101451.00;;;;10538757;28;20188;-80
2022/05/04 00:22:40;;;;;;;17.47;9.90;;;;;8.30;101447.00;;;;10554916;28;20188;-79
2022/05/04 00:27:42;;;;;;;19.93;10.23;;;;;8.20;101452.00;;;;10521637;27;20215;-80
2022/05/04 00:32:46;;;;;;;21.43;10.20;;;;;8.10;101445.00;;;;10536676;28;20242;-79
2022/05/04 00:37:47;;;;;;;16.23;9.33;;;;;8.00;101445.00;;;;10531635;28;20189;-79
2022/05/04 00:42:49;;;;;;;17.40;9.80;;;;;7.80;101447.00;;;;10535706;28;20257;-79
2022/05/04 00:47:51;;;;;;;15.87;9.23;;;;;7.70;101448.00;;;;10546370;27;20617;-80
2022/05/04 00:52:53;;;;;;;15.60;10.03;;;;;7.60;101442.00;;;;10523758;28;20197;-79
2022/05/04 01:03:15;;;;;;;16.70;10.43;;;;;7.50;101450.00;;;;10562435;28;20635;-79
2022/05/04 01:08:17;;;;;;;21.00;10.60;;;;;7.50;101440.00;;;;10569292;28;20215;-79
2022/05/04 01:13:20;;;;;;;20.43;10.03;;;;;7.50;101442.00;;;;10552381;28;20192;-79
2022/05/04 01:18:22;;;;;;;21.80;10.57;;;;;7.50;101444.00;;;;10534630;28;20217;-80
2022/05/04 01:23:26;;;;;;;20.50;9.70;;;;;7.50;101438.00;;;;10568238;28;20192;-79
2022/05/04 01:28:28;;;;;;;19.53;10.13;;;;;7.50;101432.00;;;;10533751;28;20556;-79
2022/05/04 01:33:30;;;;;;;18.50;10.70;;;;;7.40;101434.00;;;;10552424;28;20224;-79
2022/05/04 01:38:33;;;;;;;17.80;10.30;;;;;7.40;101435.00;;;;10551989;28;20215;-78
2022/05/04 01:43:35;;;;;;;18.47;9.80;;;;;7.50;101426.00;;;;10535862;27;20216;-79
2022/05/04 01:48:37;;;;;;;18.03;10.50;;;;;7.50;101431.00;;;;10584302;28;20216;-79
2022/05/04 01:53:39;;;;;;;19.57;10.87;;;;;7.50;101433.00;;;;10550353;28;20230;-79
2022/05/04 01:58:41;;;;;;;19.30;10.57;;;;;7.50;101436.00;;;;10542142;28;20654;-79
2022/05/04 02:03:43;;;;;;;17.13;10.10;;;;;7.50;101426.00;;;;10583559;28;20188;-79
2022/05/04 02:08:46;;;;;;;15.90;9.50;;;;;7.50;101431.00;;;;10566731;28;20345;-79
2022/05/04 02:13:49;;;;;;;18.17;10.03;;;;;7.50;101431.00;;;;10551322;28;20187;-79
2022/05/04 02:18:51;;;;;;;15.63;9.73;;;;;7.50;101431.00;;;;10502547;28;20215;-80
2022/05/04 02:23:53;;;;;;;18.93;10.40;;;;;7.50;101430.00;;;;10565542;28;20615;-79
2022/05/04 02:28:55;;;;;;;17.97;11.00;;;;;7.60;101429.00;;;;10548995;28;20207;-79
2022/05/04 02:33:57;;;;;;;16.97;9.63;;;;;7.70;101427.00;;;;10582670;28;20275;-79
2022/05/04 02:38:59;;;;;;;20.97;10.13;;;;;7.60;101422.00;;;;10553159;28;20189;-79
2022/05/04 02:44:03;;;;;;;14.37;9.47;;;;;7.60;101411.00;;;;10553600;28;20208;-79
2022/05/04 02:49:05;;;;;;;20.17;10.00;;;;;7.60;101407.00;;;;10550335;28;20720;-80
2022/05/04 02:54:07;;;;;;;18.33;9.80;;;;;7.80;101416.00;;;;10549253;28;20192;-79
2022/05/04 02:59:09;;;;;;;18.23;10.53;;;;;7.90;101408.00;;;;10565953;28;20192;-79
2022/05/04 03:04:11;;;;;;;19.77;9.33;;;;;8.00;101406.00;;;;10553167;28;20195;-80
2022/05/04 03:09:13;;;;;;;15.23;9.57;;;;;8.10;101407.00;;;;10556152;28;20575;-80
2022/05/04 03:14:15;;;;;;;19.90;10.50;;;;;8.10;101390.00;;;;10537656;27;20196;-80
2022/05/04 03:19:16;;;;;;;18.07;9.57;;;;;8.20;101401.00;;;;10557716;28;20192;-80
2022/05/04 03:24:19;;;;;;;15.67;10.63;;;;;8.20;101389.00;;;;10557523;28;20218;-79
2022/05/04 03:29:20;;;;;;;21.23;10.47;;;;;8.30;101399.00;;;;10527563;28;20204;-80
2022/05/04 03:34:23;;;;;;;20.93;10.43;;;;;8.30;101402.00;;;;10558245;28;20192;-80
2022/05/04 03:39:29;;;;;;;20.10;11.17;;;;;8.30;101395.00;;;;10572854;28;20195;-80
2022/05/04 03:44:31;;;;;;;18.87;10.07;;;;;8.30;101396.00;;;;10557809;28;20204;-80
2022/05/04 03:49:33;;;;;;;19.07;10.47;;;;;8.20;101393.00;;;;10565631;28;20213;-80
2022/05/04 03:54:36;;;;;;;17.27;10.33;;;;;8.10;101394.00;;;;10528684;28;20308;-79
2022/05/04 03:59:38;;;;;;;19.03;9.70;;;;;8.00;101393.00;;;;10535626;28;20284;-79
2022/05/04 04:04:40;;;;;;;21.27;10.47;;;;;7.90;101394.00;;;;10492969;28;20276;-80
2022/05/04 04:09:41;;;;;;;24.10;10.37;;;;;7.90;101383.00;;;;10497033;28;20340;-80
2022/05/04 04:14:43;;;;;;;16.93;10.47;;;;;8.00;101398.00;;;;10527409;28;20192;-79
2022/05/04 04:21:50;;;;;;;19.70;11.07;;;;;8.00;101394.00;;;;10514256;28;20207;-79
2022/05/04 04:25:07;;;;;;;19.73;10.30;;;;;8.10;101390.00;;;;10511544;28;20196;-80
2022/05/04 04:30:11;;;;;;;21.20;11.47;;;;;8.20;101399.00;;;;10529079;28;20220;-80
2022/05/04 04:35:13;;;;;;;20.97;11.23;;;;;8.20;101398.00;;;;10488752;28;20194;-79
2022/05/04 04:40:15;;;;;;;18.13;10.23;;;;;8.20;101401.00;;;;10522083;28;20188;-79
2022/05/04 04:45:17;;;;;;;20.03;10.37;;;;;8.20;101404.00;;;;10487247;28;20194;-79
2022/05/04 04:50:19;;;;;;;18.27;11.00;;;;;8.20;101409.00;;;;10546642;28;20269;-79
2022/05/04 04:55:21;;;;;;;21.50;10.57;;;;;8.20;101403.00;;;;10529013;28;20631;-79
2022/05/04 05:00:24;;;;;;;15.70;10.87;;;;;8.10;101406.00;;;;10549967;28;20481;-79
2022/05/04 05:30:21;;;;;;;19.13;11.07;;;;;8.20;101415.00;;;;12413423;22;20313;-79
2022/05/04 05:35:23;;;;;;;22.67;11.57;;;;;8.20;101420.00;;;;10426686;28;20209;-79
2022/05/04 05:40:26;;;;;;;20.40;11.60;;;;;8.20;101419.00;;;;10413440;28;20276;-79
2022/05/04 05:45:29;;;;;;;19.60;12.40;;;;;8.40;101421.00;;;;10408479;28;20194;-80
2022/05/04 05:50:33;;;;;;;19.60;11.57;;;;;8.60;101419.00;;;;10420686;28;20214;-80
2022/05/04 05:55:36;;;;;;;24.80;12.40;;;;;9.60;101417.00;;;;10443425;28;20601;-80
2022/05/04 06:00:37;;;;;;;22.97;12.23;;;;;10.40;101422.00;;;;10419630;28;20221;-79
2022/05/04 06:05:39;;;;;;;25.97;11.77;;;;;11.40;101427.00;;;;10420304;28;20723;-80
2022/05/04 06:10:41;;;;;;;22.07;10.90;;;;;12.20;101432.00;;;;10411161;28;20249;-80
2022/05/04 06:15:43;;;;;;;18.67;9.77;;;;;12.70;101430.00;;;;10415108;28;20202;-81
2022/05/04 06:20:45;;;;;;;15.73;9.80;;;;;13.10;101445.00;;;;10416145;28;20188;-80
2022/05/04 06:25:47;;;;;;;15.63;9.30;;;;;13.60;101435.00;;;;10415265;28;20198;-80
2022/05/04 06:36:10;;;;;;;17.40;9.13;;;;;14.30;101433.00;;;;10420548;28;20209;-80
2022/05/04 06:41:12;;;;;;;15.47;8.27;;;;;14.50;101438.00;;;;10375082;28;20202;-80
2022/05/04 06:46:15;;;;;;;12.70;8.43;;;;;14.90;101439.00;;;;10394336;28;20199;-80
2022/05/04 06:51:19;;;;;;;13.63;7.33;;;;;15.20;101442.00;;;;10414671;28;20291;-81
2022/05/04 06:56:21;;;;;;;18.63;8.50;;;;;15.30;101441.00;;;;10414644;28;20230;-80
2022/05/04 07:01:23;;;;;;;16.20;8.33;;;;;15.70;101436.00;;;;10419077;28;20214;-79
2022/05/04 07:06:25;;;;;;;15.32;9.05;;;;;16.10;101436.00;;;;10413935;28;20248;-79
2022/05/04 07:11:27;;;;;;;13.83;8.27;;;;;16.40;101430.00;;;;10407078;28;20220;-81
2022/05/04 07:16:29;;;;;;;13.52;8.77;;;;;16.80;101440.00;;;;10430080;28;20279;-80
2022/05/04 07:21:42;;;;;;;13.02;8.70;;;;;17.10;101442.00;;;;10410988;28;20648;-80
2022/05/04 07:26:44;;;;;;;11.48;8.05;;;;;17.50;101450.00;;;;10415477;28;20606;-80
2022/05/04 07:31:46;;;;;;;13.65;9.38;;;;;18.00;101445.00;;;;10407713;28;20230;-79
2022/05/04 07:36:48;;;;;;;16.50;8.80;;;;;17.60;101447.00;;;;10406852;28;20193;-80
2022/05/04 07:47:11;;;;;;;15.35;8.98;;;;;17.50;101452.00;;;;10397374;28;20229;-79
2022/05/04 07:52:12;;;;;;;12.82;8.18;;;;;17.60;101451.00;;;;10396732;28;20239;-80
2022/05/04 07:57:15;;;;;;;12.10;8.82;;;;;18.10;101460.00;;;;10422434;28;20209;-78
2022/05/04 08:07:43;;;;;;;15.85;7.85;;;;;19.20;101459.00;;;;10421943;28;20671;-80
2022/05/04 08:12:45;;;;;;;15.63;8.98;;;;;18.70;101452.00;;;;10423541;28;20246;-80
2022/05/04 08:17:47;;;;;;;19.30;11.48;;;;;19.40;101448.00;;;;10415656;28;20193;-78
2022/05/04 08:22:49;;;;;;;17.60;11.05;;;;;19.80;101442.00;;;;10419197;28;20182;-77
2022/05/04 08:27:51;;;;;;;20.17;14.27;;;;;19.40;101452.00;;;;10400745;28;20199;-78
2022/05/04 08:32:53;;;;;;;20.83;14.07;;;;;20.00;101446.00;;;;10424172;28;20218;-78
2022/05/04 08:37:55;;;;;;;18.67;11.20;;;;;20.30;101435.00;;;;10405602;28;20194;-80
2022/05/04 08:42:59;;;;;;;17.60;12.48;;;;;20.30;101445.00;;;;10404279;28;20202;-78
2022/05/04 08:48:04;;;;;;;19.92;11.48;;;;;20.30;101439.00;;;;10408621;28;20207;-81
2022/05/04 08:53:07;;;;;;;19.05;11.80;;;;;20.90;101438.00;;;;10460980;28;20676;-81
2022/05/04 08:58:09;;;;;;;15.82;12.27;;;;;21.30;101442.00;;;;10409400;28;20213;-78
2022/05/04 09:03:11;;;;;;;16.52;12.95;;;;;21.80;101435.00;;;;10413642;28;20281;-78
2022/05/04 09:08:13;;;;;;;18.50;12.70;;;;;21.70;101440.00;;;;10405458;28;20228;-78
2022/05/04 09:13:20;;;;;;;15.13;12.63;;;;;21.60;101436.00;;;;10403703;28;20224;-78
2022/05/04 09:18:22;;;;;;;17.02;11.85;;;;;21.20;101430.00;;;;10425635;28;20212;-78
2022/05/04 09:23:29;;;;;;;15.88;11.45;;;;;21.30;101433.00;;;;10409565;28;20286;-78
2022/05/04 09:28:32;;;;;;;18.67;12.43;;;;;22.00;101436.00;;;;10442631;28;20252;-79
2022/05/04 09:33:35;;;;;;;16.42;12.85;;;;;22.60;101435.00;;;;10411489;28;20222;-78
2022/05/04 09:49:28;;;;;;;17.33;11.65;;;;;22.70;101434.00;;;;10424649;28;20237;-78
2022/05/04 09:54:30;;;;;;;14.98;12.10;;;;;22.60;101426.00;;;;10423461;28;20204;-78
2022/05/04 09:59:34;;;;;;;18.48;13.73;;;;;23.00;101434.00;;;;10437686;28;20186;-78
2022/05/04 10:04:38;;;;;;;18.27;13.00;;;;;23.10;101428.00;;;;10429769;28;20190;-77
2022/05/04 10:09:44;;;;;;;16.58;12.75;;;;;23.30;101428.00;;;;10399999;28;20218;-77
2022/05/04 10:14:47;;;;;;;19.55;14.75;;;;;22.80;101424.00;;;;10428456;28;20620;-76
2022/05/04 10:20:09;;;;;;;20.65;13.98;;;;;23.50;101419.00;;;;10433438;28;20194;-76
2022/05/04 10:25:14;;;;;;;19.33;12.25;;;;;23.10;101422.00;;;;10436194;28;20198;-76
2022/05/04 10:30:32;;;;;;;16.70;12.63;;;;;23.00;101421.00;;;;10439075;28;20218;-78
2022/05/04 10:35:45;;;;;;;15.80;12.23;;;;;23.00;101428.00;;;;10397075;28;20194;-76
2022/05/04 10:40:54;;;;;;;15.95;11.93;;;;;23.40;101417.00;;;;10401091;28;20209;-76
2022/05/04 10:46:03;;;;;;;20.88;13.45;;;;;24.00;101416.00;;;;10414608;28;20186;-76
2022/05/04 10:51:18;;;;;;;19.45;12.68;;;;;23.60;101410.00;;;;10408743;28;20214;-76
2022/05/04 10:56:23;;;;;;;14.48;11.07;;;;;24.60;101408.00;;;;10398865;28;20611;-76
2022/05/04 11:01:30;;;;;;;18.75;11.30;;;;;24.50;101408.00;;;;10379915;28;20651;-76
2022/05/04 11:06:34;;;;;;;19.13;12.65;;;;;24.60;101406.00;;;;10401941;28;20206;-77
2022/05/04 11:11:38;;;;;;;14.85;10.55;;;;;24.90;101401.00;;;;10388014;28;20210;-78
2022/05/04 11:16:43;;;;;;;18.48;12.32;;;;;24.60;101397.00;;;;10409495;28;20688;-79
2022/05/04 11:21:45;;;;;;;17.80;12.32;;;;;24.60;101391.00;;;;10382085;28;20194;-79
2022/05/04 11:26:50;;;;;;;21.88;11.27;;;;;25.30;101383.00;;;;10401776;28;20301;-77
2022/05/04 11:32:01;;;;;;;15.48;10.80;;;;;25.00;101382.00;;;;10414246;28;20215;-77
2022/05/04 11:37:06;;;;;;;13.82;10.25;;;;;24.80;101382.00;;;;10437309;28;20740;-77
2022/05/04 11:42:09;;;;;;;12.55;9.23;;;;;25.30;101381.00;;;;10427103;28;20272;-78
2022/05/04 11:47:13;;;;;;;15.63;10.30;;;;;25.80;101379.00;;;;10411870;28;20195;-78
2022/05/04 11:52:17;;;;;;;14.82;10.27;;;;;25.90;101371.00;;;;10426124;28;20226;-78
2022/05/04 11:57:22;;;;;;;13.90;11.73;;;;;25.40;101362.00;;;;10375805;28;20233;-78
2022/05/04 12:02:25;;;;;;;13.95;9.60;;;;;25.50;101366.00;;;;10414948;28;20194;-77
2022/05/04 12:07:28;;;;;;;12.65;10.05;;;;;25.60;101365.00;;;;10396283;28;20666;-78
2022/05/04 12:12:30;;;;;;;14.50;10.85;;;;;25.20;101352.00;;;;10418513;28;20292;-77
2022/05/04 12:17:36;;;;;;;18.23;11.13;;;;;25.10;101350.00;;;;10407495;28;20198;-77
2022/05/04 12:22:39;;;;;;;16.08;12.27;;;;;24.90;101347.00;;;;10418057;28;20648;-78
2022/05/04 12:27:44;;;;;;;20.30;12.30;;;;;24.70;101338.00;;;;10429594;28;20190;-77
2022/05/04 12:38:09;;;;;;;16.38;12.82;;;;;25.70;101337.00;;;;10423462;28;20206;-77
2022/05/04 12:43:12;;;;;;;16.45;11.98;;;;;25.50;101334.00;;;;10457921;28;20196;-78
2022/05/04 12:48:13;;;;;;;13.82;9.50;;;;;25.80;101332.00;;;;10410701;28;20635;-78
2022/05/04 12:53:16;;;;;;;15.70;10.27;;;;;25.70;101332.00;;;;10406117;28;20226;-78
2022/05/04 12:58:18;;;;;;;12.70;10.45;;;;;25.50;101325.00;;;;10446028;28;20201;-77
2022/05/04 13:03:20;;;;;;;14.88;11.38;;;;;24.90;101321.00;;;;10449627;28;20183;-78
2022/05/04 13:08:22;;;;;;;17.42;11.48;;;;;24.50;101319.00;;;;10454716;28;20194;-78
2022/05/04 13:13:27;;;;;;;17.50;12.10;;;;;25.80;101317.00;;;;10410040;28;20215;-78
2022/05/04 13:18:29;;;;;;;14.18;9.98;;;;;27.80;101311.00;;;;10436252;28;20333;-78
2022/05/04 13:23:32;;;;;;;14.38;10.18;;;;;28.00;101315.00;;;;10439193;28;20201;-78
2022/05/04 13:28:34;;;;;;;10.82;8.80;;;;;25.40;101306.00;;;;10430745;28;20221;-78
2022/05/04 13:33:36;;;;;;;12.57;8.85;;;;;27.00;101295.00;;;;10435920;28;20242;-78
2022/05/04 13:38:38;;;;;;;11.82;8.02;;;;;23.70;101302.00;;;;10414264;28;20209;-78
2022/05/04 13:43:41;;;;;;;12.73;8.18;;;;;24.80;101305.00;;;;10369590;28;20209;-78
2022/05/04 13:48:44;;;;;;;9.88;7.68;;;;;27.70;101290.00;;;;10408430;28;20194;-78
2022/05/04 13:53:46;;;;;;;10.40;7.40;;;;;22.80;101303.00;;;;10401756;28;20226;-78
2022/05/04 13:58:48;;;;;;;10.35;7.95;;;;;21.30;101302.00;;;;10422992;28;20191;-78
2022/05/04 14:03:50;;;;;;;9.88;7.07;;;;;26.80;101291.00;;;;10438181;28;20198;-78
2022/05/04 14:08:52;;;;;;;9.60;6.78;;;;;26.10;101286.00;;;;10426282;28;20203;-78
2022/05/04 14:15:01;;;;;;;10.07;7.03;;;;;22.60;101290.00;;;;10423753;28;20218;-77
2022/05/04 14:19:17;;;;;;;13.38;7.45;;;;;21.50;101292.00;;;;10439214;28;20657;-78
2022/05/04 14:24:20;;;;;;;9.48;6.50;;;;;22.40;101257.00;;;;10415757;28;20196;-78
2022/05/04 14:29:22;;;;;;;10.52;6.88;;;;;28.30;101262.00;;;;10426263;28;20217;-78
2022/05/04 14:34:24;;;;;;;10.23;6.60;;;;;26.40;101286.00;;;;10419908;28;20223;-78
2022/05/04 14:39:26;;;;;;;9.68;6.30;;;;;25.50;101272.00;;;;10406814;28;20556;-78
2022/05/04 14:44:28;;;;;;;10.73;7.13;;;;;24.90;101276.00;;;;10428192;28;20220;-78
2022/05/04 14:49:30;;;;;;;11.85;7.38;;;;;23.10;101279.00;;;;10411563;28;20660;-78
2022/05/04 14:54:32;;;;;;;10.25;7.43;;;;;22.10;101270.00;;;;10429070;28;20202;-79
2022/05/04 14:59:34;;;;;;;12.20;8.82;;;;;25.40;101261.00;;;;10417626;28;20289;-77
2022/05/04 15:09:58;;;;;;;17.13;9.85;;;;;23.20;101271.00;;;;10437528;28;20229;-78
2022/05/04 15:15:00;;;;;;;11.90;9.23;;;;;22.40;101278.00;;;;10410326;28;20198;-78
2022/05/04 15:20:02;;;;;;;11.68;9.25;;;;;23.40;101263.00;;;;10404419;28;20285;-79
2022/05/04 15:25:05;;;;;;;13.63;9.93;;;;;24.00;101273.00;;;;10446788;28;20220;-78
2022/05/04 15:30:08;;;;;;;14.40;10.38;;;;;21.70;101279.00;;;;10407516;28;20279;-78
2022/05/04 15:35:10;;;;;;;14.73;9.85;;;;;20.90;101268.00;;;;10425620;28;20224;-77
2022/05/04 15:40:12;;;;;;;14.60;9.93;;;;;24.80;101257.00;;;;10461782;28;20615;-78
2022/05/04 15:45:15;;;;;;;16.63;11.73;;;;;26.10;101266.00;;;;10456680;28;20272;-79
2022/05/04 15:50:17;;;;;;;15.93;10.18;;;;;22.80;101274.00;;;;10412966;28;20206;-77
2022/05/04 15:55:20;;;;;;;13.82;10.40;;;;;22.30;101278.00;;;;10413118;28;20187;-77
2022/05/04 16:00:22;;;;;;;17.67;9.85;;;;;21.10;101272.00;;;;10394664;28;20194;-78
2022/05/04 16:05:24;;;;;;;17.73;10.50;;;;;20.40;101274.00;;;;10387603;28;20249;-78
2022/05/04 16:10:26;;;;;;;17.70;10.98;;;;;20.00;101266.00;;;;10423558;28;20210;-77
2022/05/04 16:15:28;;;;;;;18.67;11.57;;;;;20.00;101279.00;;;;10433597;28;20187;-77
2022/05/04 16:25:57;;;;;;;16.63;11.43;;;;;19.50;101271.00;;;;10431240;28;20190;-78
2022/05/04 16:31:05;;;;;;;14.43;10.18;;;;;19.40;101274.00;;;;10413961;28;20278;-78
2022/05/04 16:36:08;;;;;;;17.77;11.23;;;;;19.20;101268.00;;;;10401573;28;20243;-78
2022/05/04 16:41:10;;;;;;;15.73;11.23;;;;;18.80;101270.00;;;;10428350;28;20198;-79
2022/05/04 16:46:12;;;;;;;12.30;10.57;;;;;18.40;101272.00;;;;10441838;28;20285;-78
2022/05/04 16:51:16;;;;;;;16.85;10.88;;;;;18.30;101273.00;;;;10412486;28;20218;-78
2022/05/04 16:56:19;;;;;;;16.10;9.60;;;;;18.40;101284.00;;;;10411893;28;20201;-77
2022/05/04 17:01:21;;;;;;;13.20;9.07;;;;;18.30;101283.00;;;;10395507;28;20567;-77
2022/05/04 17:06:23;;;;;;;15.90;10.23;;;;;18.40;101274.00;;;;10430391;28;20186;-78
2022/05/04 17:11:25;;;;;;;21.08;9.52;;;;;18.30;101277.00;;;;10424191;28;20573;-78
2022/05/04 17:16:27;;;;;;;15.38;9.70;;;;;18.40;101287.00;;;;10399317;28;20259;-78
2022/05/04 17:21:30;;;;;;;17.27;10.25;;;;;18.20;101286.00;;;;10423367;28;20236;-77
2022/05/04 17:26:32;;;;;;;22.23;12.50;;;;;18.10;101280.00;;;;10404257;28;20261;-77
2022/05/04 17:31:35;;;;;;;12.95;10.27;;;;;17.70;101278.00;;;;10426849;28;20229;-76
2022/05/04 17:36:43;;;;;;;21.70;10.70;;;;;17.50;101285.00;;;;10415157;28;20198;-77
2022/05/04 17:41:46;;;;;;;14.80;10.68;;;;;17.30;101290.00;;;;10432226;28;20233;-77
2022/05/04 17:46:48;;;;;;;15.77;9.13;;;;;17.00;101294.00;;;;10391155;28;20202;-78
2022/05/04 17:51:50;;;;;;;15.30;10.67;;;;;16.70;101298.00;;;;10408767;28;20481;-79
2022/05/04 17:56:51;;;;;;;19.42;10.32;;;;;16.30;101303.00;;;;10421497;28;20656;-78
2022/05/04 18:07:14;;;;;;;18.10;10.87;;;;;15.80;101319.00;;;;10420265;28;20197;-77
2022/05/04 18:12:16;;;;;;;19.07;10.67;;;;;15.60;101325.00;;;;10393043;28;20318;-77
2022/05/04 18:17:19;;;;;;;16.27;10.07;;;;;15.60;101321.00;;;;10443413;28;20224;-78
2022/05/04 18:22:21;;;;;;;16.13;9.63;;;;;15.50;101329.00;;;;10412335;28;20182;-78
2022/05/04 18:27:23;;;;;;;17.30;9.10;;;;;15.40;101333.00;;;;10419066;28;20273;-78
2022/05/04 18:32:25;;;;;;;16.83;9.17;;;;;15.40;101329.00;;;;10421164;28;20222;-77
2022/05/04 18:37:28;;;;;;;16.80;9.33;;;;;15.40;101336.00;;;;10383900;28;20691;-78
2022/05/04 18:42:30;;;;;;;11.23;7.67;;;;;15.20;101347.00;;;;10389406;28;20668;-78
2022/05/04 18:47:32;;;;;;;12.83;8.10;;;;;15.10;101351.00;;;;10405838;28;20191;-78
2022/05/04 18:52:34;;;;;;;12.00;7.53;;;;;15.00;101363.00;;;;10410214;28;20214;-78
2022/05/04 18:57:36;;;;;;;9.47;7.00;;;;;14.90;101361.00;;;;10402506;28;20209;-77
2022/05/04 19:02:39;;;;;;;11.13;6.60;;;;;14.70;101365.00;;;;10404267;28;20190;-78
2022/05/04 19:07:43;;;;;;;11.50;7.23;;;;;14.60;101371.00;;;;10422665;28;20651;-77
2022/05/04 19:12:45;;;;;;;14.27;7.47;;;;;14.50;101370.00;;;;10407377;28;20233;-78
2022/05/04 19:17:46;;;;;;;9.47;5.83;;;;;14.30;101381.00;;;;10423284;28;20241;-78
2022/05/04 19:22:49;;;;;;;12.27;6.70;;;;;14.20;101381.00;;;;10396315;28;20191;-78
2022/05/04 19:27:51;;;;;;;13.77;6.93;;;;;14.00;101386.00;;;;10400894;28;20202;-78
2022/05/04 19:32:53;;;;;;;11.57;6.70;;;;;13.90;101388.00;;;;10423789;28;20218;-78
2022/05/04 19:37:56;;;;;;;11.73;6.70;;;;;13.70;101389.00;;;;10356283;28;20203;-77
2022/05/04 19:42:58;;;;;;;10.23;6.20;;;;;13.60;101404.00;;;;10361818;28;20191;-77
2022/05/04 19:48:00;;;;;;;11.40;6.60;;;;;13.50;101404.00;;;;10378226;28;20278;-78
2022/05/04 19:53:03;;;;;;;12.03;6.53;;;;;13.40;101401.00;;;;10370689;28;20211;-78
2022/05/04 19:58:04;;;;;;;11.10;6.30;;;;;13.30;101407.00;;;;10388374;28;20234;-77
2022/05/04 20:03:07;;;;;;;10.57;6.43;;;;;13.20;101405.00;;;;10388187;28;20298;-78
2022/05/04 20:08:09;;;;;;;12.97;7.37;;;;;13.00;101411.00;;;;10359467;28;20689;-78
2022/05/04 20:13:11;;;;;;;14.67;8.00;;;;;12.90;101416.00;;;;10403881;28;20219;-78
2022/05/04 20:18:13;;;;;;;10.40;6.73;;;;;12.80;101418.00;;;;10385868;28;20195;-78
2022/05/04 20:23:16;;;;;;;9.07;6.57;;;;;12.70;101423.00;;;;10386997;28;20538;-77
2022/05/04 20:28:18;;;;;;;11.53;6.30;;;;;12.50;101424.00;;;;10385353;28;20190;-78
2022/05/04 20:33:20;;;;;;;13.60;6.90;;;;;12.50;101423.00;;;;10385309;28;20318;-77
2022/05/04 20:43:43;;;;;;;13.10;6.67;;;;;12.20;101434.00;;;;10379458;28;20183;-78
2022/05/04 20:48:45;;;;;;;12.87;7.53;;;;;12.10;101430.00;;;;10383262;28;20214;-78
2022/05/04 20:53:47;;;;;;;11.40;7.53;;;;;12.00;101428.00;;;;10346038;28;20219;-78
2022/05/04 20:58:50;;;;;;;12.53;7.33;;;;;11.90;101440.00;;;;10373376;28;20206;-77
2022/05/04 21:03:51;;;;;;;13.20;7.60;;;;;11.80;101432.00;;;;10385259;28;20194;-77
2022/05/04 21:08:56;;;;;;;11.93;6.87;;;;;11.70;101430.00;;;;10387378;28;20545;-77
2022/05/04 21:13:58;;;;;;;13.60;8.20;;;;;11.70;101441.00;;;;10363301;28;20219;-78
2022/05/04 21:19:01;;;;;;;12.60;7.50;;;;;11.60;101449.00;;;;10367354;28;20182;-78
2022/05/04 21:24:03;;;;;;;15.33;7.97;;;;;11.60;101448.00;;;;10351045;28;20194;-78
2022/05/04 21:29:05;;;;;;;19.13;9.87;;;;;11.50;101456.00;;;;10365148;28;20195;-77
2022/05/04 21:34:07;;;;;;;14.90;7.83;;;;;11.40;101463.00;;;;10402639;28;20272;-78
2022/05/04 21:39:10;;;;;;;12.87;7.67;;;;;11.30;101465.00;;;;10406704;28;20229;-78
2022/05/04 21:44:14;;;;;;;10.53;7.90;;;;;11.20;101467.00;;;;10404783;28;20210;-78
2022/05/04 21:49:16;;;;;;;16.77;9.97;;;;;11.10;101472.00;;;;10427562;28;20321;-78
2022/05/04 21:54:17;;;;;;;16.17;9.93;;;;;11.00;101463.00;;;;10409205;28;20237;-78
2022/05/04 21:59:19;;;;;;;16.07;9.20;;;;;11.00;101462.00;;;;10417935;28;20202;-77
2022/05/04 22:04:25;;;;;;;18.67;9.00;;;;;10.90;101464.00;;;;10415478;28;20179;-77
2022/05/04 22:09:27;;;;;;;13.23;8.17;;;;;10.90;101473.00;;;;10410569;28;20253;-77
2022/05/04 22:14:29;;;;;;;14.80;8.40;;;;;11.00;101477.00;;;;10394092;28;20222;-77
2022/05/04 22:19:31;;;;;;;11.53;8.43;;;;;11.00;101482.00;;;;10365810;28;20199;-77
2022/05/04 22:24:33;;;;;;;15.53;9.40;;;;;11.00;101481.00;;;;10370642;28;20191;-77
2022/05/04 22:29:34;;;;;;;14.63;8.87;;;;;11.00;101488.00;;;;10404796;28;20245;-77
2022/05/04 22:34:36;;;;;;;11.97;8.30;;;;;11.00;101486.00;;;;10431878;28;20217;-77
2022/05/04 22:39:38;;;;;;;14.83;8.33;;;;;11.00;101486.00;;;;10447471;28;20181;-77
2022/05/04 22:44:41;;;;;;;17.93;9.13;;;;;11.00;101485.00;;;;10414943;28;20518;-77
2022/05/04 22:49:43;;;;;;;13.73;8.67;;;;;10.90;101485.00;;;;10480122;28;20197;-77
2022/05/04 22:54:45;;;;;;;13.17;7.83;;;;;10.80;101484.00;;;;10412100;28;20264;-77
2022/05/04 22:59:47;;;;;;;15.30;7.93;;;;;10.80;101487.00;;;;10421614;28;20198;-77
2022/05/04 23:04:49;;;;;;;12.23;8.17;;;;;10.70;101490.00;;;;10421460;28;20187;-77
2022/05/04 23:09:52;;;;;;;13.57;7.97;;;;;10.70;101485.00;;;;10425599;28;20186;-77
2022/05/04 23:14:55;;;;;;;10.30;8.53;;;;;10.70;101486.00;;;;10400133;28;20244;-76
2022/05/04 23:19:56;;;;;;;15.80;9.93;;;;;10.70;101487.00;;;;10407252;28;20206;-77
2022/05/04 23:24:58;;;;;;;9.90;8.33;;;;;10.70;101480.00;;;;10429487;28;20190;-77
2022/05/04 23:30:01;;;;;;;15.33;8.97;;;;;10.60;101472.00;;;;10426885;28;20218;-77
2022/05/04 23:35:03;;;;;;;15.63;8.87;;;;;10.60;101482.00;;;;10412063;28;20248;-77
2022/05/04 23:40:05;;;;;;;16.07;9.53;;;;;10.50;101475.00;;;;10444674;28;20639;-77
2022/05/04 23:45:07;;;;;;;14.73;8.80;;;;;10.40;101475.00;;;;10428719;28;20182;-77
2022/05/04 23:50:09;;;;;;;13.20;9.57;;;;;10.30;101470.00;;;;10412016;28;20208;-77
2022/05/04 23:55:11;;;;;;;14.20;9.30;;;;;10.20;101480.00;;;;10435470;28;20206;-77
